Time;durP1;ratioP1;P1;durP2;ratioP2;P2;SDS_P1;SDS_P2;PMS_P1;PMS_P2;Temp;Humidity;BMP_temperature;BMP_pressure;BME280_temperature;BME280_humidity;BME280_pressure;Samples;Min_cycle;Max_cycle;Signal;HPM_P1;HPM_P2
2023/10/23 00:01:21;;;;;;;7.82;1.40;;;;;;;-149.70;100.00;76967.34;5009948;28;20081;-66
2023/10/23 00:03:47;;;;;;;8.25;1.88;;;;;;;-149.70;100.00;76969.38;5009473;28;20052;-66
2023/10/23 00:06:14;;;;;;;7.85;1.55;;;;;;;-149.70;100.00;76965.31;5009653;28;20046;-65
2023/10/23 00:08:41;;;;;;;2.92;1.17;;;;;;;-149.70;100.00;76975.47;5009664;28;20145;-66
2023/10/23 00:11:07;;;;;;;2.47;1.25;;;;;;;-149.70;100.00;76979.56;5009682;28;20100;-66
2023/10/23 00:13:34;;;;;;;8.23;1.55;;;;;;;-149.70;100.00;76983.63;4982765;28;20427;-65
2023/10/23 00:16:00;;;;;;;5.20;1.58;;;;;;;-149.70;100.00;76995.81;5010364;28;20045;-66
2023/10/23 00:18:27;;;;;;;9.55;1.73;;;;;;;-149.70;100.00;76993.78;5009175;28;20042;-66
2023/10/23 00:20:54;;;;;;;9.95;1.60;;;;;;;-149.70;100.00;76995.81;5008780;28;20061;-66
2023/10/23 00:23:22;;;;;;;6.60;1.58;;;;;;;-149.70;100.00;76999.88;5010350;28;20540;-66
2023/10/23 00:25:49;;;;;;;3.85;1.45;;;;;;;-149.70;100.00;77003.94;5009228;28;20046;-65
2023/10/23 00:28:15;;;;;;;6.32;1.80;;;;;;;-149.70;100.00;77001.91;5009329;28;20046;-65
2023/10/23 00:30:43;;;;;;;2.78;1.30;;;;;;;-149.70;100.00;77010.06;5009810;28;20123;-67
2023/10/23 00:33:10;;;;;;;4.47;1.42;;;;;;;-149.70;100.00;77012.09;5008382;28;20049;-66
2023/10/23 00:35:37;;;;;;;11.82;2.10;;;;;;;-149.70;100.00;77010.06;5008780;28;20085;-66
2023/10/23 00:38:05;;;;;;;10.00;1.80;;;;;;;-149.70;100.00;77003.94;5008620;28;20096;-65
2023/10/23 00:40:32;;;;;;;5.07;1.52;;;;;;;-149.70;100.00;77012.09;5009748;28;20074;-66
2023/10/23 00:43:13;;;;;;;9.02;2.00;;;;;;;-149.70;100.00;77022.25;5009863;28;20042;-66
2023/10/23 00:45:48;;;;;;;3.28;1.73;;;;;;;-149.70;100.00;77020.22;5007403;28;20498;-66
2023/10/23 00:48:15;;;;;;;4.72;1.77;;;;;;;-149.70;100.00;77024.28;4990640;28;20046;-66
2023/10/23 00:50:42;;;;;;;5.20;1.70;;;;;;;-149.70;100.00;77026.31;5008659;28;20056;-67
2023/10/23 00:53:09;;;;;;;6.85;1.80;;;;;;;-149.70;100.00;77030.38;5001715;28;20486;-66
2023/10/23 00:55:35;;;;;;;5.28;1.90;;;;;;;-149.70;100.00;77028.34;4988313;28;20046;-66
2023/10/23 00:58:02;;;;;;;10.90;1.90;;;;;;;-149.70;100.00;77028.34;4990018;28;20058;-66
2023/10/23 01:00:30;;;;;;;7.82;1.80;;;;;;;-149.70;100.00;77038.53;4990194;28;20046;-66
2023/10/23 01:02:57;;;;;;;9.30;2.10;;;;;;;-149.70;100.00;77036.50;4988685;28;20133;-66
2023/10/23 01:05:23;;;;;;;5.53;1.92;;;;;;;-149.70;100.00;77040.56;4990117;28;20058;-66
2023/10/23 01:07:50;;;;;;;5.15;1.90;;;;;;;-149.70;100.00;77054.78;4988666;28;20096;-66
2023/10/23 01:10:17;;;;;;;3.05;1.75;;;;;;;-149.70;100.00;77050.72;4989079;28;20108;-66
2023/10/23 01:12:43;;;;;;;9.52;2.20;;;;;;;-149.70;100.00;77056.81;4987734;28;20498;-65
2023/10/23 01:15:12;;;;;;;11.25;2.00;;;;;;;-149.70;100.00;77054.78;4987527;28;20090;-65
2023/10/23 01:17:39;;;;;;;10.50;2.55;;;;;;;-149.70;100.00;77067.00;4989118;28;20054;-65
2023/10/23 01:20:08;;;;;;;5.93;2.22;;;;;;;-149.70;100.00;77060.88;4987796;28;20054;-65
2023/10/23 01:22:38;;;;;;;7.05;2.50;;;;;;;-149.70;100.00;77060.88;4988134;28;20046;-65
2023/10/23 01:25:13;;;;;;;7.97;1.85;;;;;;;-149.70;100.00;77071.06;4988778;28;20050;-65
2023/10/23 01:27:40;;;;;;;6.45;2.15;;;;;;;-149.70;100.00;77077.16;4988190;28;20050;-65
2023/10/23 01:30:09;;;;;;;4.50;1.90;;;;;;;-149.70;100.00;77073.09;4987073;28;20042;-65
2023/10/23 01:32:36;;;;;;;6.45;2.33;;;;;;;-149.70;100.00;77085.28;4987946;28;20061;-65
2023/10/23 01:35:03;;;;;;;9.95;2.63;;;;;;;-149.70;100.00;77085.28;4989093;28;20053;-64
2023/10/23 01:37:30;;;;;;;4.90;1.75;;;;;;;-149.70;100.00;77083.25;4989184;28;20530;-65
2023/10/23 01:39:57;;;;;;;5.53;2.33;;;;;;;-149.70;100.00;77089.38;4988035;28;20062;-65
2023/10/23 01:42:28;;;;;;;11.38;3.03;;;;;;;-149.70;100.00;77089.38;4988283;28;20084;-65
2023/10/23 01:44:58;;;;;;;8.60;2.35;;;;;;;-149.70;100.00;77091.41;4986799;28;20057;-65
2023/10/23 01:47:25;;;;;;;7.22;2.08;;;;;;;-149.70;100.00;77077.16;4989076;28;20042;-65
2023/10/23 01:49:52;;;;;;;7.13;2.47;;;;;;;-149.70;100.00;77075.13;4988058;28;20506;-65
2023/10/23 01:52:19;;;;;;;7.13;2.50;;;;;;;-149.70;100.00;77064.97;4988579;28;20073;-65
2023/10/23 01:54:45;;;;;;;10.73;2.58;;;;;;;-149.70;100.00;77067.00;5007745;28;20046;-65
2023/10/23 01:57:13;;;;;;;6.38;2.50;;;;;;;-149.70;100.00;77064.97;5008134;28;20050;-65
2023/10/23 01:59:39;;;;;;;6.78;2.88;;;;;;;-149.70;100.00;77062.94;5009245;28;20053;-65
2023/10/23 02:02:06;;;;;;;8.30;3.30;;;;;;;-149.70;100.00;77060.88;5011850;28;20112;-65
2023/10/23 02:04:37;;;;;;;7.15;2.10;;;;;;;-149.70;100.00;77052.75;5011601;28;20556;-66
2023/10/23 02:07:24;;;;;;;7.15;2.25;;;;;;;-149.70;100.00;77044.63;5014293;28;20050;-66
2023/10/23 02:09:51;;;;;;;4.72;1.98;;;;;;;-149.70;100.00;77030.38;4984920;28;20078;-65
2023/10/23 02:12:17;;;;;;;8.18;2.50;;;;;;;-149.70;100.00;77044.63;5012632;28;20050;-65
2023/10/23 02:14:44;;;;;;;10.10;2.65;;;;;;;-149.70;100.00;77034.47;5012700;28;20069;-65
2023/10/23 02:17:11;;;;;;;4.65;1.85;;;;;;;-149.70;100.00;77038.53;5011827;28;20076;-65
2023/10/23 02:19:37;;;;;;;5.22;1.88;;;;;;;-149.70;100.00;77036.50;5011964;28;20046;-66
2023/10/23 02:22:04;;;;;;;6.82;1.90;;;;;;;-149.70;100.00;77036.50;5011889;28;20053;-66
2023/10/23 02:24:30;;;;;;;7.35;2.47;;;;;;;-149.70;100.00;77048.69;5012037;28;20659;-66
2023/10/23 02:26:57;;;;;;;5.30;2.30;;;;;;;-149.70;100.00;77050.72;4994547;28;20046;-65
2023/10/23 02:29:23;;;;;;;4.65;2.00;;;;;;;-149.70;100.00;77058.84;5011994;28;20106;-66
2023/10/23 02:31:50;;;;;;;6.22;2.42;;;;;;;-149.70;100.00;77071.06;5011427;28;20445;-66
2023/10/23 02:34:17;;;;;;;6.05;2.03;;;;;;;-149.70;100.00;77077.16;5011463;28;20041;-65
2023/10/23 02:36:43;;;;;;;10.77;1.92;;;;;;;-149.70;100.00;77081.22;5012574;28;20120;-66
2023/10/23 02:39:10;;;;;;;9.10;2.33;;;;;;;-149.70;100.00;77087.31;5011758;28;20096;-65
2023/10/23 02:41:37;;;;;;;7.03;2.10;;;;;;;-149.70;100.00;77097.50;5011308;28;20154;-66
2023/10/23 02:44:05;;;;;;;6.45;2.03;;;;;;;-149.70;100.00;77103.59;5011353;28;20044;-65
2023/10/23 02:46:35;;;;;;;16.10;2.60;;;;;;;-149.70;100.00;77117.84;5011673;28;20046;-65
2023/10/23 02:49:02;;;;;;;6.47;2.50;;;;;;;-149.70;100.00;77113.78;5011055;28;20046;-66
2023/10/23 02:51:29;;;;;;;4.93;2.47;;;;;;;-149.70;100.00;77125.97;5011304;28;20054;-64
2023/10/23 02:53:56;;;;;;;10.73;2.70;;;;;;;-149.70;100.00;77134.09;4999110;28;20129;-65
2023/10/23 02:56:22;;;;;;;6.03;2.20;;;;;;;-149.70;100.00;77138.16;4992451;28;20050;-69
2023/10/23 02:58:49;;;;;;;12.80;2.83;;;;;;;-149.70;100.00;77140.19;4991841;28;20095;-65
2023/10/23 03:01:20;;;;;;;9.48;2.63;;;;;;;-149.70;100.00;77146.31;4992939;28;20101;-66
2023/10/23 03:03:47;;;;;;;8.30;3.03;;;;;;;-149.70;100.00;77150.38;4991957;28;20499;-65
2023/10/23 03:06:14;;;;;;;6.93;2.60;;;;;;;-149.70;100.00;77156.47;4992605;28;20482;-65
2023/10/23 03:08:42;;;;;;;10.38;3.00;;;;;;;-149.70;100.00;77154.44;4992438;28;20469;-66
2023/10/23 03:11:09;;;;;;;8.07;3.05;;;;;;;-149.70;100.00;77158.50;4991249;28;20502;-66
2023/10/23 03:13:37;;;;;;;10.82;2.95;;;;;;;-149.70;100.00;77174.78;4991684;28;20410;-65
2023/10/23 03:16:04;;;;;;;7.60;2.97;;;;;;;-149.70;100.00;77174.78;4991951;28;20050;-66
2023/10/23 03:18:32;;;;;;;9.38;2.83;;;;;;;-149.70;100.00;77174.78;4991752;28;20458;-65
2023/10/23 03:20:59;;;;;;;6.43;3.20;;;;;;;-149.70;100.00;77178.84;4991834;28;20422;-65
2023/10/23 03:23:30;;;;;;;6.93;2.78;;;;;;;-149.70;100.00;77182.91;4991857;28;20053;-65
2023/10/23 03:25:57;;;;;;;11.15;2.85;;;;;;;-149.70;100.00;77195.13;4991746;28;20125;-65
2023/10/23 03:28:24;;;;;;;13.65;3.45;;;;;;;-149.70;100.00;77195.13;4991685;28;20054;-65
2023/10/23 03:30:50;;;;;;;10.85;3.28;;;;;;;-149.70;100.00;77197.16;4992051;28;20491;-65
2023/10/23 03:33:17;;;;;;;5.20;2.70;;;;;;;-149.70;100.00;77199.19;4991424;28;20046;-65
2023/10/23 03:35:44;;;;;;;6.50;2.80;;;;;;;-149.70;100.00;77195.13;4991919;28;20481;-66
2023/10/23 03:38:13;;;;;;;10.57;3.45;;;;;;;-149.70;100.00;77199.19;4991460;28;20050;-66
2023/10/23 03:40:40;;;;;;;7.93;3.03;;;;;;;-149.70;100.00;77209.34;4991215;28;20050;-65
2023/10/23 03:43:08;;;;;;;6.95;2.97;;;;;;;-149.70;100.00;77209.34;4991118;28;20101;-66
2023/10/23 03:45:36;;;;;;;5.63;2.80;;;;;;;-149.70;100.00;77215.44;4990686;28;20525;-65
2023/10/23 03:48:03;;;;;;;6.55;3.72;;;;;;;-149.70;100.00;77225.63;4990858;28;20053;-65
2023/10/23 03:50:30;;;;;;;7.50;2.97;;;;;;;-149.70;100.00;77219.53;4991260;28;20057;-65
2023/10/23 03:52:57;;;;;;;10.45;3.22;;;;;;;-149.70;100.00;77219.53;4995850;28;20048;-66
2023/10/23 03:55:24;;;;;;;9.55;3.40;;;;;;;-149.70;100.00;77231.72;5010665;28;20422;-65
2023/10/23 03:57:51;;;;;;;8.23;3.03;;;;;;;-149.70;100.00;77233.75;5011466;28;20478;-65
2023/10/23 04:00:18;;;;;;;9.32;3.40;;;;;;;-149.70;100.00;77237.81;5010309;28;20529;-65
2023/10/23 04:02:45;;;;;;;10.98;3.63;;;;;;;-149.70;100.00;77243.91;5011267;28;20520;-65
2023/10/23 04:05:12;;;;;;;13.70;3.42;;;;;;;-149.70;100.00;77245.97;5009859;28;20050;-65
2023/10/23 04:07:38;;;;;;;10.88;3.35;;;;;;;-149.70;100.00;77248.00;5009995;28;20453;-66
2023/10/23 04:10:07;;;;;;;9.30;3.50;;;;;;;-149.70;100.00;77254.09;5010140;28;20057;-65
2023/10/23 04:12:34;;;;;;;12.65;4.32;;;;;;;-149.70;100.00;77256.13;5010275;28;20120;-65
2023/10/23 04:15:00;;;;;;;12.88;3.70;;;;;;;-149.70;100.00;77262.22;5010096;28;20069;-66
2023/10/23 04:17:27;;;;;;;10.98;3.90;;;;;;;-149.70;100.00;77268.31;5010284;28;20490;-66
2023/10/23 04:19:53;;;;;;;7.95;3.67;;;;;;;-149.70;100.00;77264.25;5009717;28;20391;-67
2023/10/23 04:22:20;;;;;;;5.25;3.20;;;;;;;-149.70;100.00;77268.31;5010145;28;20104;-65
2023/10/23 04:24:47;;;;;;;6.57;4.18;;;;;;;-149.70;100.00;77272.41;4984402;28;20415;-64
2023/10/23 04:27:14;;;;;;;10.93;3.55;;;;;;;-149.70;100.00;77272.41;5011102;28;20502;-65
2023/10/23 04:29:41;;;;;;;13.15;4.05;;;;;;;-149.70;100.00;77278.50;5009960;28;20050;-65
2023/10/23 04:32:08;;;;;;;9.55;4.68;;;;;;;-149.70;100.00;77286.63;5010424;28;20048;-65
2023/10/23 04:34:34;;;;;;;8.65;3.97;;;;;;;-149.70;100.00;77288.66;5009824;28;20461;-65
2023/10/23 04:37:03;;;;;;;8.30;4.00;;;;;;;-149.70;100.00;77290.69;5009859;28;20056;-65
2023/10/23 04:39:29;;;;;;;12.68;5.25;;;;;;;-149.70;100.00;77296.81;5009972;28;20050;-65
2023/10/23 04:41:56;;;;;;;9.20;4.57;;;;;;;-149.70;100.00;77300.88;5009719;28;20049;-65
2023/10/23 04:44:22;;;;;;;11.55;4.88;;;;;;;-149.70;100.00;77300.88;5009270;28;20108;-65
2023/10/23 04:46:49;;;;;;;8.57;4.30;;;;;;;-149.70;100.00;77304.94;5010012;28;20104;-65
2023/10/23 04:49:15;;;;;;;12.27;4.57;;;;;;;-149.70;100.00;77311.03;5010225;28;20052;-65
2023/10/23 04:51:42;;;;;;;9.20;4.90;;;;;;;-149.70;100.00;77315.09;5010329;28;20049;-65
2023/10/23 04:54:09;;;;;;;9.90;4.57;;;;;;;-149.70;100.00;77317.13;4995229;28;20458;-65
2023/10/23 04:56:35;;;;;;;9.50;4.75;;;;;;;-149.70;100.00;77321.19;4990975;28;20108;-66
2023/10/23 04:59:02;;;;;;;9.48;5.07;;;;;;;-149.70;100.00;77319.16;4990432;28;20047;-65
2023/10/23 05:01:28;;;;;;;10.25;5.22;;;;;;;-149.70;100.00;77323.25;4989476;28;20050;-65
2023/10/23 05:03:55;;;;;;;9.07;4.93;;;;;;;-149.70;100.00;77325.28;4990188;28;20050;-65
2023/10/23 05:06:28;;;;;;;15.23;4.93;;;;;;;-149.70;100.00;77329.34;4989867;28;20499;-65
2023/10/23 05:08:56;;;;;;;14.27;5.63;;;;;;;-149.70;100.00;77329.34;4990220;28;20418;-65
2023/10/23 05:11:23;;;;;;;10.63;5.00;;;;;;;-149.70;100.00;77337.47;4990768;28;20101;-65
2023/10/23 05:13:50;;;;;;;12.25;5.60;;;;;;;-149.70;100.00;77335.44;4973010;28;20050;-65
2023/10/23 05:16:17;;;;;;;9.60;5.50;;;;;;;-149.70;100.00;77337.47;4990697;28;20129;-65
2023/10/23 05:18:47;;;;;;;11.70;5.10;;;;;;;-149.70;100.00;77337.47;4991018;28;20479;-65
2023/10/23 05:21:14;;;;;;;24.77;10.82;;;;;;;-149.70;100.00;77339.50;4990588;28;20050;-65
2023/10/23 05:23:41;;;;;;;26.75;13.80;;;;;;;-149.70;100.00;77345.59;4990173;28;20053;-65
2023/10/23 05:26:10;;;;;;;17.50;6.82;;;;;;;-149.70;100.00;77341.53;4990055;28;20054;-65
2023/10/23 05:28:42;;;;;;;15.50;6.25;;;;;;;-149.70;100.00;77345.59;4990457;28;20046;-65
2023/10/23 05:31:09;;;;;;;11.75;5.90;;;;;;;-149.70;100.00;77357.81;4990013;28;20152;-65
2023/10/23 05:33:36;;;;;;;13.45;5.35;;;;;;;-149.70;100.00;77363.91;4989713;28;20100;-65
2023/10/23 05:36:09;;;;;;;8.80;5.50;;;;;;;-149.70;100.00;77357.81;4990132;28;20042;-65
2023/10/23 05:38:37;;;;;;;11.07;6.10;;;;;;;-149.70;100.00;77367.97;4990158;28;20078;-65
2023/10/23 05:41:07;;;;;;;17.52;5.97;;;;;;;-149.70;100.00;77382.22;4990088;28;20042;-67
2023/10/23 05:43:34;;;;;;;10.50;5.50;;;;;;;-149.70;100.00;77378.16;4990027;28;20458;-65
2023/10/23 05:46:03;;;;;;;9.80;5.60;;;;;;;-149.70;100.00;77365.94;4989618;28;20047;-65
2023/10/23 05:48:32;;;;;;;16.27;5.80;;;;;;;-149.70;100.00;77365.94;4990468;28;20061;-65
2023/10/23 05:51:03;;;;;;;17.08;6.50;;;;;;;-149.70;100.00;77372.06;4990093;28;20486;-65
2023/10/23 05:53:31;;;;;;;12.02;5.80;;;;;;;-149.70;100.00;77372.06;4999106;28;20712;-65
2023/10/23 05:56:05;;;;;;;10.60;5.60;;;;;;;-149.70;100.00;77365.94;5009494;28;20081;-65
2023/10/23 05:58:33;;;;;;;10.27;5.72;;;;;;;-149.70;100.00;77357.81;5009636;28;20057;-65
2023/10/23 06:01:05;;;;;;;9.15;4.95;;;;;;;-149.70;100.00;77351.72;5009517;28;20050;-66
2023/10/23 06:03:33;;;;;;;11.98;5.68;;;;;;;-149.70;100.00;77349.69;5009376;28;20065;-66
2023/10/23 06:06:00;;;;;;;13.32;6.63;;;;;;;-149.70;100.00;77345.59;5009532;28;20046;-65
2023/10/23 06:08:27;;;;;;;11.73;6.40;;;;;;;-149.70;100.00;77341.53;5009024;28;20104;-65
2023/10/23 06:10:54;;;;;;;10.10;5.45;;;;;;;-149.70;100.00;77337.47;5009338;28;20050;-65
2023/10/23 06:13:21;;;;;;;13.85;6.25;;;;;;;-149.70;100.00;77333.41;5009320;28;20077;-65
2023/10/23 06:15:48;;;;;;;27.40;6.20;;;;;;;-149.70;100.00;77329.34;5009645;28;20124;-64
2023/10/23 06:18:15;;;;;;;16.27;5.55;;;;;;;-149.70;100.00;77331.38;5010013;28;20045;-65
2023/10/23 06:20:42;;;;;;;14.02;5.18;;;;;;;-149.70;100.00;77327.31;5008875;28;20046;-65
2023/10/23 06:23:09;;;;;;;12.55;5.70;;;;;;;-149.70;100.00;77339.50;5009116;28;20130;-65
2023/10/23 06:25:35;;;;;;;12.68;5.85;;;;;;;-149.70;100.00;77329.34;4991820;28;20052;-65
2023/10/23 06:28:03;;;;;;;12.68;6.07;;;;;;;-149.70;100.00;77335.44;5009135;28;20092;-65
2023/10/23 06:30:30;;;;;;;11.80;6.10;;;;;;;-149.70;100.00;77329.34;5009169;28;20054;-65
2023/10/23 06:32:56;;;;;;;17.25;6.55;;;;;;;-149.70;100.00;77327.31;5009316;28;20041;-65
2023/10/23 06:35:23;;;;;;;12.95;5.90;;;;;;;-149.70;100.00;77327.31;5009341;28;20498;-65
2023/10/23 06:37:50;;;;;;;18.70;8.15;;;;;;;-149.70;100.00;77329.34;5009302;28;20050;-64
2023/10/23 06:40:16;;;;;;;22.95;10.40;;;;;;;-149.70;100.00;77329.34;5009823;28;20057;-65
2023/10/23 06:42:43;;;;;;;28.60;13.77;;;;;;;-149.70;100.00;77327.31;5009825;28;20042;-65
2023/10/23 06:45:10;;;;;;;16.48;7.53;;;;;;;-149.70;100.00;77327.31;5009126;28;20049;-65
2023/10/23 06:47:37;;;;;;;19.20;7.28;;;;;;;-149.70;100.00;77317.13;5012971;28;20049;-65
2023/10/23 06:50:05;;;;;;;17.58;7.93;;;;;;;-149.70;100.00;77317.13;5011035;28;20046;-65
2023/10/23 06:52:32;;;;;;;16.73;6.32;;;;;;;-149.70;100.00;77300.88;5011006;28;20414;-65
2023/10/23 06:54:59;;;;;;;15.27;7.20;;;;;;;-149.70;100.00;77286.63;4993005;28;20124;-65
2023/10/23 06:57:26;;;;;;;25.90;7.95;;;;;;;-149.70;100.00;77268.31;4992881;28;20046;-65
2023/10/23 06:59:54;;;;;;;13.85;7.43;;;;;;;-149.70;100.00;77270.38;4992659;28;20042;-65
2023/10/23 07:02:21;;;;;;;14.88;6.30;;;;;;;-149.70;100.00;77264.25;4992927;28;20395;-67
2023/10/23 07:04:48;;;;;;;14.00;6.75;;;;;;;-149.70;100.00;77254.09;4992745;28;20081;-65
2023/10/23 07:07:15;;;;;;;17.13;7.07;;;;;;;-149.70;100.00;77256.13;4993203;28;20054;-65
2023/10/23 07:09:58;;;;;;;17.27;7.10;;;;;;;-149.70;100.00;77250.03;4992737;28;20507;-65
2023/10/23 07:12:26;;;;;;;12.15;7.10;;;;;;;-149.70;100.00;77256.13;4993228;28;20058;-65
2023/10/23 07:14:53;;;;;;;16.52;6.78;;;;;;;-149.70;100.00;77272.41;4992759;28;20057;-66
2023/10/23 07:17:20;;;;;;;13.45;6.72;;;;;;;-149.70;100.00;77272.41;4992566;28;20129;-65
2023/10/23 07:19:46;;;;;;;12.63;6.45;;;;;;;-149.70;100.00;77260.19;4993472;28;20487;-65
2023/10/23 07:22:13;;;;;;;14.82;7.20;;;;;;;-149.70;100.00;77284.59;4993397;28;20042;-65
2023/10/23 07:24:39;;;;;;;10.23;6.28;;;;;;;-149.70;100.00;77288.66;4992140;28;20491;-66
2023/10/23 07:27:11;;;;;;;10.13;6.43;;;;;;;-149.70;100.00;77272.41;4992966;28;20463;-66
2023/10/23 07:29:38;;;;;;;;;;;;;;;-149.70;100.00;77272.41;4993003;28;20054;-65
2023/10/23 07:32:05;;;;;;;11.13;6.25;;;;;;;-149.70;100.00;77258.16;4991684;28;19921;-65
2023/10/23 07:34:31;;;;;;;17.10;7.40;;;;;;;-149.70;100.00;77243.91;4992293;28;20487;-66
2023/10/23 07:36:58;;;;;;;22.10;7.00;;;;;;;-149.70;100.00;77223.59;4992103;28;20047;-66
2023/10/23 07:39:25;;;;;;;14.35;5.82;;;;;;;-149.70;100.00;77207.31;4991961;28;20101;-66
2023/10/23 07:41:51;;;;;;;10.68;5.68;;;;;;;-149.70;100.00;77199.19;4992247;28;20125;-66
2023/10/23 07:44:20;;;;;;;10.73;6.35;;;;;;;-149.70;100.00;77219.53;4993352;28;21425;-65
2023/10/23 07:46:47;;;;;;;11.77;6.57;;;;;;;-149.70;100.00;77207.31;5012465;28;20501;-66
2023/10/23 07:49:13;;;;;;;8.15;5.65;;;;;;;-149.70;100.00;77211.38;5011525;28;20359;-66
2023/10/23 07:51:40;;;;;;;10.82;6.38;;;;;;;-149.70;100.00;77215.44;5011128;28;20096;-66
2023/10/23 07:54:07;;;;;;;13.65;6.10;;;;;;;-149.70;100.00;77191.03;4997179;28;20521;-66
2023/10/23 07:56:33;;;;;;;11.75;6.55;;;;;;;-149.70;100.00;77186.97;4991544;28;20054;-65
2023/10/23 07:59:00;;;;;;;9.98;5.72;;;;;;;-149.70;100.00;77184.94;4990461;28;20453;-65
2023/10/23 08:01:27;;;;;;;11.10;5.85;;;;;;;-149.70;100.00;77180.88;4992203;28;20090;-65
2023/10/23 08:03:53;;;;;;;13.98;6.03;;;;;;;-149.70;100.00;77186.97;4991772;28;20467;-65
2023/10/23 08:06:20;;;;;;;17.33;7.15;;;;;;;-149.70;100.00;77182.91;4991770;28;20058;-65
2023/10/23 08:08:47;;;;;;;9.98;6.05;;;;;;;-149.70;100.00;77168.69;4992716;28;20050;-65
2023/10/23 08:11:13;;;;;;;11.63;6.25;;;;;;;-149.70;100.00;77152.41;4991762;28;20487;-65
2023/10/23 08:13:41;;;;;;;8.50;5.20;;;;;;;-149.70;100.00;77158.50;4991585;28;20101;-65
2023/10/23 08:16:07;;;;;;;11.90;5.82;;;;;;;-149.70;100.00;77170.72;4991176;28;20112;-65
2023/10/23 08:18:35;;;;;;;12.52;5.20;;;;;;;-149.70;100.00;77158.50;4991534;28;20498;-65
2023/10/23 08:21:15;;;;;;;11.57;6.72;;;;;;;-149.70;100.00;77146.31;4991684;28;20061;-65
2023/10/23 08:23:43;;;;;;;13.73;6.55;;;;;;;-149.70;100.00;77142.25;4991396;28;20046;-66
2023/10/23 08:26:09;;;;;;;18.17;6.93;;;;;;;-149.70;100.00;77123.94;4991332;28;20046;-66
2023/10/23 08:28:36;;;;;;;16.98;7.03;;;;;;;-149.70;100.00;77113.78;4991551;28;20050;-66
2023/10/23 08:31:06;;;;;;;10.10;5.97;;;;;;;-149.70;100.00;77105.63;4974969;28;20101;-66
2023/10/23 08:33:47;;;;;;;10.50;6.10;;;;;;;-149.70;100.00;77121.91;4991630;28;20475;-66
2023/10/23 08:36:14;;;;;;;13.13;6.35;;;;;;;-149.70;100.00;77125.97;4991555;28;20050;-66
2023/10/23 08:38:40;;;;;;;18.20;7.15;;;;;;;-149.70;100.00;77109.69;4991735;28;20077;-66
2023/10/23 08:41:10;;;;;;;10.95;6.55;;;;;;;-149.70;100.00;77093.44;4990415;28;20050;-66
2023/10/23 08:43:38;;;;;;;10.20;5.80;;;;;;;-149.70;100.00;77083.25;4991233;28;20105;-66
2023/10/23 08:46:04;;;;;;;11.95;6.57;;;;;;;-149.70;100.00;77101.56;4990837;28;20046;-66
2023/10/23 08:48:31;;;;;;;14.70;5.97;;;;;;;-149.70;100.00;77071.06;4990768;28;20080;-66
2023/10/23 08:50:58;;;;;;;12.05;6.32;;;;;;;-149.70;100.00;77044.63;4990796;28;20410;-66
2023/10/23 08:53:33;;;;;;;9.82;6.40;;;;;;;-149.70;100.00;77038.53;4999071;28;20486;-66
2023/10/23 08:56:06;;;;;;;12.55;7.07;;;;;;;-149.70;100.00;77034.47;5010610;28;20045;-66
2023/10/23 08:58:36;;;;;;;9.18;6.38;;;;;;;-149.70;100.00;77024.28;5010774;28;20050;-66
2023/10/23 09:01:03;;;;;;;11.10;6.32;;;;;;;-149.70;100.00;77040.56;5010034;28;20050;-65
2023/10/23 09:03:32;;;;;;;9.65;5.82;;;;;;;-149.70;100.00;77030.38;5009982;28;20115;-66
2023/10/23 09:06:19;;;;;;;11.15;6.18;;;;;;;-149.70;100.00;77016.16;4995307;28;20133;-65
2023/10/23 09:08:46;;;;;;;20.50;6.57;;;;;;;-149.70;100.00;77034.47;5010247;28;20054;-66
2023/10/23 09:11:13;;;;;;;11.15;6.03;;;;;;;-149.70;100.00;76999.88;5010063;28;20133;-66
2023/10/23 09:13:40;;;;;;;9.80;6.13;;;;;;;-149.70;100.00;76959.22;5009676;28;20116;-65
2023/10/23 09:16:09;;;;;;;11.63;6.53;;;;;;;-149.70;100.00;76955.16;5008803;28;20131;-66
2023/10/23 09:18:51;;;;;;;9.02;6.20;;;;;;;-149.70;100.00;76934.81;5009161;28;20061;-66
2023/10/23 09:21:19;;;;;;;10.75;6.35;;;;;;;-149.70;100.00;76886.00;5009228;28;20461;-65
2023/10/23 09:23:58;;;;;;;13.15;5.50;;;;;;;-149.70;100.00;76845.34;5010405;28;20048;-66
2023/10/23 09:26:25;;;;;;;14.90;6.78;;;;;;;-149.70;100.00;76843.31;5009682;28;20050;-66
2023/10/23 09:28:52;;;;;;;18.85;5.65;;;;;;;-149.70;100.00;76802.63;5009787;28;20042;-65
2023/10/23 09:31:20;;;;;;;9.43;4.90;;;;;;;-149.70;100.00;76786.38;5009757;28;20057;-65
2023/10/23 09:33:49;;;;;;;13.02;6.07;;;;;;;-149.70;100.00;76764.00;5010561;28;20096;-66
2023/10/23 09:36:16;;;;;;;13.15;6.15;;;;;;;-149.70;100.00;76768.06;5009860;28;20108;-66
2023/10/23 09:38:56;;;;;;;8.75;5.00;;;;;;;-149.70;100.00;76759.94;5010439;28;20041;-66
2023/10/23 09:41:22;;;;;;;17.17;5.90;;;;;;;-149.70;100.00;76768.06;5008808;28;20464;-65
2023/10/23 09:43:50;;;;;;;12.00;5.45;;;;;;;-149.70;100.00;76755.84;5009899;28;20192;-65
2023/10/23 09:46:19;;;;;;;11.25;5.43;;;;;;;-149.70;100.00;76755.84;5010046;28;20046;-66
2023/10/23 09:48:47;;;;;;;11.10;5.80;;;;;;;-149.70;100.00;76766.03;5010578;28;20387;-66
2023/10/23 09:51:15;;;;;;;12.85;6.13;;;;;;;-149.70;100.00;76766.03;5009940;28;20053;-65
2023/10/23 09:53:48;;;;;;;13.07;5.53;;;;;;;-149.70;100.00;76778.22;4998742;28;20466;-67
2023/10/23 09:56:20;;;;;;;9.13;5.30;;;;;;;-149.70;100.00;76764.00;4989963;28;20066;-65
2023/10/23 09:58:53;;;;;;;15.95;5.30;;;;;;;-149.70;100.00;76759.94;4990157;28;20066;-67
2023/10/23 10:01:27;;;;;;;15.48;5.63;;;;;;;-149.70;100.00;76674.53;4989704;28;20101;-66
2023/10/23 10:03:57;;;;;;;8.80;4.70;;;;;;;-149.70;100.00;76568.78;4990466;28;20494;-65
2023/10/23 10:06:25;;;;;;;12.82;4.80;;;;;;;-149.70;100.00;76469.16;4989921;28;20451;-69
2023/10/23 10:08:55;;;;;;;9.15;4.57;;;;;;;-149.70;100.00;76446.78;4989733;28;20101;-66
2023/10/23 10:11:22;;;;;;;7.88;4.03;;;;;;;-149.70;100.00;76450.84;4988851;28;20054;-66
2023/10/23 10:13:50;;;;;;;11.70;4.63;;;;;;;-149.70;100.00;76452.88;4989768;28;20145;-66
2023/10/23 10:16:17;;;;;;;8.48;3.85;;;;;;;-149.70;100.00;76442.72;4990514;28;20116;-66
2023/10/23 10:18:44;;;;;;;8.35;4.07;;;;;;;-149.70;100.00;76467.13;4988999;28;20057;-66
2023/10/23 10:21:12;;;;;;;9.93;4.28;;;;;;;-149.70;100.00;76452.88;4992894;28;20051;-66
2023/10/23 10:23:39;;;;;;;6.63;3.17;;;;;;;-149.70;100.00;76448.81;4993467;28;20128;-67
2023/10/23 10:26:06;;;;;;;10.30;3.67;;;;;;;-149.70;100.00;76448.81;4993454;28;20047;-67
2023/10/23 10:28:38;;;;;;;11.50;3.47;;;;;;;-149.70;100.00;76452.88;4993188;28;20050;-66
2023/10/23 10:31:05;;;;;;;5.45;3.42;;;;;;;-149.70;100.00;76446.78;4993152;28;20046;-66
2023/10/23 10:33:32;;;;;;;7.30;2.85;;;;;;;-149.70;100.00;76432.56;4992729;28;20077;-66
2023/10/23 10:36:20;;;;;;;7.57;3.25;;;;;;;-149.70;100.00;76381.72;4993545;28;20046;-67
2023/10/23 10:39:06;;;;;;;6.60;3.50;;;;;;;-149.70;100.00;76438.66;4993432;28;20042;-67
2023/10/23 10:41:36;;;;;;;10.55;3.17;;;;;;;-149.70;100.00;76422.38;4993859;28;20054;-67
2023/10/23 10:44:10;;;;;;;12.60;3.25;;;;;;;-149.70;100.00;76424.41;4993341;28;20046;-66
2023/10/23 10:46:41;;;;;;;10.70;3.25;;;;;;;-149.70;100.00;76467.13;4993050;28;20054;-66
2023/10/23 10:49:07;;;;;;;11.80;2.80;;;;;;;-149.70;100.00;76458.97;4993543;28;20054;-67
2023/10/23 10:51:34;;;;;;;7.85;3.30;;;;;;;-149.70;100.00;76446.78;4993399;28;20050;-67
2023/10/23 10:54:10;;;;;;;6.63;3.08;;;;;;;-149.70;100.00;76467.13;5006150;28;20053;-67
2023/10/23 10:56:36;;;;;;;6.85;3.58;;;;;;;-149.70;100.00;76507.78;5012411;28;20046;-66
2023/10/23 10:59:05;;;;;;;8.98;3.83;;;;;;;-149.70;100.00;76524.06;5013042;28;20038;-66
2023/10/23 11:01:32;;;;;;;7.53;3.28;;;;;;;-149.70;100.00;76542.34;5012874;28;20116;-66
2023/10/23 11:04:00;;;;;;;7.28;4.18;;;;;;;-149.70;100.00;76540.31;5012323;28;20048;-66
2023/10/23 11:06:26;;;;;;;7.13;4.00;;;;;;;-149.70;100.00;76548.44;5012596;28;20069;-65
2023/10/23 11:08:54;;;;;;;7.32;3.97;;;;;;;-149.70;100.00;76524.06;5012807;28;20447;-65